createdAt,value
2019-05-15T00:00:40.657Z,0
2019-05-15T00:01:52.853Z,0
2019-05-15T00:03:05.045Z,0
2019-05-15T00:04:17.259Z,0
2019-05-15T00:05:29.497Z,0
2019-05-15T00:06:41.063Z,0
2019-05-15T00:07:53.084Z,0
2019-05-15T00:09:06.078Z,0
2019-05-15T00:11:30.441Z,0
2019-05-15T00:12:42.631Z,0
2019-05-15T00:13:54.850Z,0
2019-05-15T00:15:07.067Z,0
2019-05-15T00:16:19.238Z,0
2019-05-15T00:17:31.439Z,0
2019-05-15T00:18:43.646Z,0
2019-05-15T00:19:55.837Z,0
2019-05-15T00:21:08.044Z,0
2019-05-15T00:22:20.245Z,0
2019-05-15T00:23:32.450Z,0
2019-05-15T00:24:44.640Z,0
2019-05-15T00:25:56.843Z,0
2019-05-15T00:27:09.004Z,0
2019-05-15T00:28:21.235Z,0
2019-05-15T00:29:33.429Z,0
2019-05-15T00:30:45.636Z,0
2019-05-15T00:31:57.840Z,0
2019-05-15T00:33:10.037Z,0
2019-05-15T00:34:22.024Z,0
2019-05-15T00:35:34.431Z,0
2019-05-15T00:36:46.640Z,0
2019-05-15T00:37:58.837Z,0
2019-05-15T00:39:11.045Z,0
2019-05-15T00:40:23.330Z,0
2019-05-15T00:41:35.453Z,0
2019-05-15T00:42:47.639Z,0
2019-05-15T00:43:59.847Z,0
2019-05-15T00:45:12.047Z,0
2019-05-15T00:46:24.444Z,0
2019-05-15T00:47:36.443Z,0
2019-05-15T00:48:48.649Z,0
2019-05-15T00:50:00.867Z,0
2019-05-15T00:51:13.004Z,0
2019-05-15T00:52:25.239Z,0
2019-05-15T00:53:37.458Z,0
2019-05-15T00:54:49.066Z,0
2019-05-15T00:56:01.853Z,0
2019-05-15T00:57:14.053Z,0
2019-05-15T00:58:26.310Z,0
2019-05-15T00:59:38.045Z,0
2019-05-15T01:00:50.656Z,0
2019-05-15T01:02:02.877Z,0
2019-05-15T01:03:15.000Z,0
2019-05-15T01:04:27.271Z,0
2019-05-15T01:05:39.461Z,0
2019-05-15T01:06:51.665Z,0
2019-05-15T01:08:03.866Z,0
2019-05-15T01:09:16.056Z,0
2019-05-15T01:10:28.391Z,0
2019-05-15T01:11:40.466Z,0
2019-05-15T01:12:52.664Z,0
2019-05-15T01:14:04.862Z,0
2019-05-15T01:15:17.053Z,0
2019-05-15T01:16:29.274Z,0
2019-05-15T01:17:41.478Z,0
2019-05-15T01:18:53.067Z,0
2019-05-15T01:20:05.875Z,0
2019-05-15T01:21:18.074Z,0
2019-05-15T01:22:30.302Z,0
2019-05-15T01:23:42.470Z,0
2019-05-15T01:24:54.685Z,0
2019-05-15T01:26:06.870Z,0
2019-05-15T01:27:19.070Z,0
2019-05-15T01:28:31.280Z,0
2019-05-15T01:29:43.480Z,0
2019-05-15T01:30:55.067Z,0
2019-05-15T01:32:07.873Z,0
2019-05-15T01:33:20.081Z,0
2019-05-15T01:34:32.283Z,0
2019-05-15T01:35:44.482Z,0
2019-05-15T01:36:56.685Z,0
2019-05-15T01:38:08.877Z,0
2019-05-15T01:39:21.095Z,0
2019-05-15T01:40:33.336Z,0
2019-05-15T01:41:45.495Z,0
2019-05-15T01:42:57.721Z,0
2019-05-15T01:44:09.889Z,0
2019-05-15T01:45:22.080Z,0
2019-05-15T01:46:34.292Z,0
2019-05-15T01:47:46.488Z,0
2019-05-15T01:48:58.701Z,0
2019-05-15T01:50:10.898Z,0
2019-05-15T01:51:23.092Z,0
2019-05-15T01:52:35.029Z,0
2019-05-15T01:53:47.498Z,0
2019-05-15T01:54:59.690Z,0
2019-05-15T01:56:11.898Z,0
2019-05-15T01:57:24.098Z,0
2019-05-15T01:58:36.309Z,0
2019-05-15T01:59:48.521Z,0
2019-05-15T02:01:00.703Z,0
2019-05-15T02:02:12.936Z,0
2019-05-15T02:03:25.107Z,0
2019-05-15T02:04:37.306Z,0
2019-05-15T02:05:49.513Z,0
2019-05-15T02:07:01.070Z,0
2019-05-15T02:08:13.900Z,0
2019-05-15T02:09:26.120Z,0
2019-05-15T02:10:38.322Z,0
2019-05-15T02:11:50.510Z,0
2019-05-15T02:13:02.714Z,0
2019-05-15T02:14:15.028Z,0
2019-05-15T02:15:27.115Z,0
2019-05-15T02:16:39.323Z,0
2019-05-15T02:17:51.510Z,0
2019-05-15T02:19:03.817Z,0
2019-05-15T02:20:15.915Z,0
2019-05-15T02:21:28.011Z,0
2019-05-15T02:22:40.327Z,0
2019-05-15T02:23:52.529Z,0
2019-05-15T02:25:04.720Z,0
2019-05-15T02:26:16.931Z,0
2019-05-15T02:27:29.123Z,0
2019-05-15T02:28:41.323Z,0
2019-05-15T02:29:53.052Z,0
2019-05-15T02:31:05.715Z,0
2019-05-15T02:32:17.924Z,0
2019-05-15T02:33:30.150Z,0
2019-05-15T02:34:42.328Z,0
2019-05-15T02:35:54.538Z,0
2019-05-15T02:37:06.799Z,0
2019-05-15T02:38:18.933Z,0
2019-05-15T02:39:31.131Z,0
2019-05-15T02:40:43.333Z,0
2019-05-15T02:41:55.539Z,0
2019-05-15T02:43:07.754Z,0
2019-05-15T02:44:19.955Z,0
2019-05-15T02:45:32.159Z,0
2019-05-15T02:46:44.345Z,0
2019-05-15T02:47:56.543Z,0
2019-05-15T02:49:08.750Z,0
2019-05-15T02:50:20.939Z,0
2019-05-15T02:51:33.014Z,0
2019-05-15T02:52:45.341Z,0
2019-05-15T02:53:57.054Z,0
2019-05-15T02:55:09.760Z,0
2019-05-15T02:56:21.984Z,0
2019-05-15T02:57:34.014Z,0
2019-05-15T02:58:46.350Z,0
2019-05-15T02:59:58.594Z,0
2019-05-15T03:01:10.747Z,0
2019-05-15T03:02:22.947Z,0
2019-05-15T03:03:35.200Z,0
2019-05-15T03:04:47.364Z,0
2019-05-15T03:05:59.056Z,0
2019-05-15T03:07:11.763Z,0
2019-05-15T03:08:23.961Z,0
2019-05-15T03:09:36.200Z,0
2019-05-15T03:10:48.360Z,0
2019-05-15T03:12:00.559Z,0
2019-05-15T03:13:12.881Z,0
2019-05-15T03:14:24.097Z,0
2019-05-15T03:15:37.171Z,0
2019-05-15T03:16:49.370Z,0
2019-05-15T03:18:01.057Z,0
2019-05-15T03:19:13.770Z,0
2019-05-15T03:20:25.959Z,0
2019-05-15T03:21:38.167Z,5
2019-05-15T03:22:50.370Z,5
2019-05-15T03:24:02.570Z,5
2019-05-15T03:25:14.780Z,5
2019-05-15T03:26:26.097Z,5
2019-05-15T03:27:39.177Z,5
2019-05-15T03:28:51.378Z,11
2019-05-15T03:30:03.623Z,11
2019-05-15T03:31:15.077Z,11
2019-05-15T03:32:27.976Z,11
2019-05-15T03:33:40.170Z,11
2019-05-15T03:34:52.387Z,11
2019-05-15T03:36:04.058Z,16
2019-05-15T03:37:16.778Z,16
2019-05-15T03:38:28.992Z,16
2019-05-15T03:39:41.207Z,16
2019-05-15T03:40:53.039Z,16
2019-05-15T03:42:05.584Z,16
2019-05-15T03:43:17.778Z,16
2019-05-15T03:44:30.001Z,22
2019-05-15T03:45:42.192Z,22
2019-05-15T03:46:54.529Z,22
2019-05-15T03:48:06.597Z,28
2019-05-15T03:49:18.795Z,28
2019-05-15T03:50:30.986Z,28
2019-05-15T03:51:43.192Z,28
2019-05-15T03:52:55.394Z,28
2019-05-15T03:54:07.616Z,28
2019-05-15T03:55:19.804Z,28
2019-05-15T03:56:32.326Z,33
2019-05-15T03:57:44.202Z,33
2019-05-15T03:58:56.420Z,33
2019-05-15T04:00:08.598Z,33
2019-05-15T04:01:20.802Z,33
2019-05-15T04:02:33.002Z,39
2019-05-15T04:03:45.213Z,39
2019-05-15T04:04:57.424Z,39
2019-05-15T04:06:09.611Z,39
2019-05-15T04:07:21.814Z,39
2019-05-15T04:08:34.012Z,45
2019-05-15T04:09:46.021Z,45
2019-05-15T04:10:58.410Z,45
2019-05-15T04:12:10.624Z,45
2019-05-15T04:13:22.081Z,45
2019-05-15T04:14:35.022Z,45
2019-05-15T04:15:47.221Z,50
2019-05-15T04:16:59.417Z,50
2019-05-15T04:18:11.622Z,50
2019-05-15T04:19:23.830Z,50
2019-05-15T04:20:36.028Z,56
2019-05-15T04:23:00.421Z,56
2019-05-15T04:24:12.673Z,56
2019-05-15T04:25:24.830Z,56
2019-05-15T04:26:37.043Z,61
2019-05-15T04:27:49.230Z,61
2019-05-15T04:29:01.438Z,61
2019-05-15T04:30:13.639Z,61
2019-05-15T04:31:25.872Z,61
2019-05-15T04:32:38.040Z,61
2019-05-15T04:33:50.236Z,61
2019-05-15T04:35:02.440Z,61
2019-05-15T04:36:14.635Z,67
2019-05-15T04:37:26.850Z,67
2019-05-15T04:38:39.079Z,67
2019-05-15T04:39:51.240Z,67
2019-05-15T04:41:03.454Z,67
2019-05-15T04:42:15.664Z,67
2019-05-15T04:43:27.847Z,67
2019-05-15T04:44:40.053Z,67
2019-05-15T04:45:52.243Z,73
2019-05-15T04:47:04.463Z,73
2019-05-15T04:48:16.646Z,73
2019-05-15T04:49:28.085Z,73
2019-05-15T04:50:41.005Z,73
2019-05-15T04:51:53.257Z,73
2019-05-15T04:53:05.449Z,73
2019-05-15T04:54:17.677Z,78
2019-05-15T04:55:29.907Z,78
2019-05-15T04:56:42.005Z,78
2019-05-15T04:57:54.255Z,78
2019-05-15T04:59:06.448Z,78
2019-05-15T05:00:18.657Z,78
2019-05-15T05:01:30.858Z,78
2019-05-15T05:02:43.057Z,84
2019-05-15T05:03:55.265Z,84
2019-05-15T05:05:07.466Z,84
2019-05-15T05:06:19.667Z,90
2019-05-15T05:07:31.867Z,90
2019-05-15T05:08:44.148Z,84
2019-05-15T05:11:08.465Z,84
2019-05-15T05:12:20.675Z,84
2019-05-15T05:13:32.873Z,84
2019-05-15T05:14:45.075Z,84
2019-05-15T05:15:57.269Z,84
2019-05-15T05:17:09.482Z,90
2019-05-15T05:18:21.677Z,84
2019-05-15T05:19:33.866Z,84
2019-05-15T05:20:46.071Z,90
2019-05-15T05:21:58.285Z,90
2019-05-15T05:23:10.483Z,90
2019-05-15T05:24:22.068Z,90
2019-05-15T05:25:34.873Z,90
2019-05-15T05:26:47.084Z,90
2019-05-15T05:27:59.283Z,90
2019-05-15T05:29:11.486Z,95
2019-05-15T05:30:23.702Z,95
2019-05-15T05:31:35.881Z,95
2019-05-15T05:32:48.083Z,95
2019-05-15T05:34:00.299Z,95
2019-05-15T05:35:12.494Z,95
2019-05-15T05:36:24.685Z,95
2019-05-15T05:37:36.892Z,95
2019-05-15T05:38:49.085Z,101
2019-05-15T05:40:01.327Z,101
2019-05-15T05:41:13.494Z,101
2019-05-15T05:42:25.696Z,101
2019-05-15T05:43:37.090Z,101
2019-05-15T05:44:50.115Z,101
2019-05-15T05:46:02.298Z,101
2019-05-15T05:47:14.501Z,106
2019-05-15T05:48:26.701Z,101
2019-05-15T05:49:38.902Z,101
2019-05-15T05:50:51.099Z,106
2019-05-15T05:52:03.319Z,106
2019-05-15T05:53:15.502Z,106
2019-05-15T05:54:27.709Z,112
2019-05-15T05:55:39.902Z,112
2019-05-15T05:56:52.126Z,106
2019-05-15T05:58:04.314Z,106
2019-05-15T05:59:16.509Z,106
2019-05-15T06:00:28.707Z,106
2019-05-15T06:01:40.930Z,106
2019-05-15T06:02:53.124Z,106
2019-05-15T06:04:05.032Z,106
2019-05-15T06:05:17.524Z,106
2019-05-15T06:06:29.717Z,106
2019-05-15T06:07:42.161Z,106
2019-05-15T06:08:54.126Z,106
2019-05-15T06:10:06.386Z,106
2019-05-15T06:11:18.542Z,106
2019-05-15T06:12:30.720Z,106
2019-05-15T06:13:42.930Z,106
2019-05-15T06:14:55.127Z,106
2019-05-15T06:16:07.329Z,106
2019-05-15T06:17:19.529Z,106
2019-05-15T06:18:31.736Z,106
2019-05-15T06:19:43.940Z,106
2019-05-15T06:20:56.134Z,106
2019-05-15T06:22:08.330Z,106
2019-05-15T06:23:20.541Z,106
2019-05-15T06:24:32.737Z,112
2019-05-15T06:25:44.935Z,112
2019-05-15T06:26:57.032Z,112
2019-05-15T06:28:09.384Z,112
2019-05-15T06:29:21.526Z,112
2019-05-15T06:30:33.749Z,112
2019-05-15T06:31:45.948Z,112
2019-05-15T06:32:58.001Z,112
2019-05-15T06:34:10.384Z,112
2019-05-15T06:35:22.538Z,112
2019-05-15T06:36:34.744Z,112
2019-05-15T06:37:46.969Z,112
2019-05-15T06:38:59.137Z,112
2019-05-15T06:40:11.348Z,112
2019-05-15T06:41:23.548Z,118
2019-05-15T06:42:35.744Z,112
2019-05-15T06:43:47.944Z,112
2019-05-15T06:45:00.171Z,118
2019-05-15T06:46:12.346Z,118
2019-05-15T06:47:24.055Z,118
2019-05-15T06:48:36.754Z,118
2019-05-15T06:49:48.953Z,118
2019-05-15T06:51:01.154Z,118
2019-05-15T06:52:13.347Z,118
2019-05-15T06:53:25.587Z,118
2019-05-15T06:54:37.768Z,118
2019-05-15T06:55:49.095Z,118
2019-05-15T06:57:02.305Z,118
2019-05-15T06:58:14.363Z,118
2019-05-15T06:59:26.565Z,118
2019-05-15T07:00:38.761Z,118
2019-05-15T07:01:50.954Z,118
2019-05-15T07:03:03.161Z,118
2019-05-15T07:04:15.361Z,123
2019-05-15T07:05:27.648Z,123
2019-05-15T07:06:39.772Z,123
2019-05-15T07:07:51.970Z,123
2019-05-15T07:09:04.166Z,123
2019-05-15T07:10:16.040Z,123
2019-05-15T07:11:28.057Z,123
2019-05-15T07:12:40.772Z,123
2019-05-15T07:13:52.979Z,123
2019-05-15T07:15:05.174Z,123
2019-05-15T07:16:17.380Z,129
2019-05-15T07:17:29.581Z,123
2019-05-15T07:18:41.782Z,123
2019-05-15T07:19:53.980Z,123
2019-05-15T07:21:06.180Z,123
2019-05-15T07:22:18.380Z,123
2019-05-15T07:23:30.570Z,123
2019-05-15T07:24:42.779Z,123
2019-05-15T07:25:54.984Z,123
2019-05-15T07:27:07.194Z,123
2019-05-15T07:28:19.388Z,123
2019-05-15T07:29:31.580Z,123
2019-05-15T07:30:45.180Z,129
2019-05-15T07:31:55.988Z,123
2019-05-15T07:33:08.018Z,123
2019-05-15T07:34:20.384Z,123
2019-05-15T07:35:32.587Z,129
2019-05-15T07:36:44.787Z,135
2019-05-15T07:37:56.997Z,129
2019-05-15T07:39:09.195Z,129
2019-05-15T07:40:21.399Z,129
2019-05-15T07:41:33.606Z,129
2019-05-15T07:42:45.789Z,135
2019-05-15T07:43:58.001Z,129
2019-05-15T07:45:10.198Z,129
2019-05-15T07:46:22.038Z,129
2019-05-15T07:47:34.605Z,140
2019-05-15T07:48:46.811Z,140
2019-05-15T07:49:59.012Z,135
2019-05-15T07:51:11.205Z,146
2019-05-15T07:52:23.541Z,135
2019-05-15T07:53:35.060Z,146
2019-05-15T07:54:47.805Z,135
2019-05-15T07:56:00.005Z,135
2019-05-15T07:57:12.218Z,135
2019-05-15T07:58:24.413Z,140
2019-05-15T07:59:36.607Z,140
2019-05-15T08:00:48.815Z,140
2019-05-15T08:02:01.017Z,140
2019-05-15T08:03:13.220Z,140
2019-05-15T08:04:25.430Z,140
2019-05-15T08:06:49.825Z,140
2019-05-15T08:08:02.025Z,140
2019-05-15T08:09:14.002Z,146
2019-05-15T08:10:26.543Z,140
2019-05-15T08:11:38.623Z,140
2019-05-15T08:12:50.823Z,140
2019-05-15T08:14:03.024Z,140
2019-05-15T08:15:15.227Z,140
2019-05-15T08:16:27.425Z,146
2019-05-15T08:17:39.647Z,140
2019-05-15T08:18:51.832Z,146
2019-05-15T08:20:04.039Z,146
2019-05-15T08:21:16.234Z,146
2019-05-15T08:22:28.431Z,146
2019-05-15T08:23:40.063Z,146
2019-05-15T08:24:52.834Z,151
2019-05-15T08:26:05.033Z,151
2019-05-15T08:27:17.239Z,151
2019-05-15T08:28:29.464Z,151
2019-05-15T08:29:41.064Z,151
2019-05-15T08:30:53.851Z,151
2019-05-15T08:32:06.036Z,151
2019-05-15T08:33:18.250Z,151
2019-05-15T08:34:30.445Z,151
2019-05-15T08:35:42.645Z,151
2019-05-15T08:36:55.044Z,151
2019-05-15T08:38:07.050Z,151
2019-05-15T08:39:19.243Z,151
2019-05-15T08:40:32.785Z,151
2019-05-15T08:41:43.683Z,157
2019-05-15T08:42:55.847Z,157
2019-05-15T08:44:08.007Z,157
2019-05-15T08:45:20.242Z,157
2019-05-15T08:46:32.453Z,157
2019-05-15T08:47:44.654Z,157
2019-05-15T08:48:56.874Z,157
2019-05-15T08:50:09.005Z,157
2019-05-15T08:51:21.273Z,157
2019-05-15T08:52:33.462Z,157
2019-05-15T08:53:45.659Z,157
2019-05-15T08:54:57.859Z,157
2019-05-15T08:56:10.052Z,157
2019-05-15T08:57:22.026Z,157
2019-05-15T08:58:34.457Z,157
2019-05-15T08:59:47.142Z,157
2019-05-15T09:00:58.872Z,163
2019-05-15T09:02:12.319Z,157
2019-05-15T09:03:23.280Z,157
2019-05-15T09:04:35.468Z,157
2019-05-15T09:05:47.916Z,157
2019-05-15T09:06:59.878Z,157
2019-05-15T09:08:12.066Z,157
2019-05-15T09:09:24.668Z,157
2019-05-15T09:10:36.482Z,157
2019-05-15T09:11:48.692Z,157
2019-05-15T09:13:00.868Z,157
2019-05-15T09:14:13.086Z,157
2019-05-15T09:15:25.308Z,157
2019-05-15T09:16:37.469Z,157
2019-05-15T09:17:49.698Z,157
2019-05-15T09:19:02.140Z,157
2019-05-15T09:20:14.091Z,157
2019-05-15T09:21:26.287Z,157
2019-05-15T09:22:38.503Z,157
2019-05-15T09:23:50.692Z,157
2019-05-15T09:25:02.885Z,163
2019-05-15T09:26:15.107Z,163
2019-05-15T09:27:27.287Z,163
2019-05-15T09:28:39.490Z,163
2019-05-15T09:29:51.925Z,163
2019-05-15T09:31:03.901Z,163
2019-05-15T09:32:16.107Z,163
2019-05-15T09:33:28.295Z,163
2019-05-15T09:34:40.495Z,163
2019-05-15T09:35:52.689Z,163
2019-05-15T09:37:04.893Z,163
2019-05-15T09:38:17.096Z,163
2019-05-15T09:39:29.305Z,163
2019-05-15T09:40:41.641Z,163
2019-05-15T09:41:53.775Z,163
2019-05-15T09:43:05.906Z,163
2019-05-15T09:44:18.108Z,168
2019-05-15T09:45:30.296Z,163
2019-05-15T09:46:42.508Z,168
2019-05-15T09:47:54.722Z,163
2019-05-15T09:49:06.963Z,163
2019-05-15T09:50:19.011Z,163
2019-05-15T09:51:31.031Z,163
2019-05-15T09:52:43.505Z,168
2019-05-15T09:53:56.024Z,168
2019-05-15T09:55:07.915Z,168
2019-05-15T09:56:20.115Z,168
2019-05-15T09:57:32.324Z,168
2019-05-15T09:58:44.520Z,168
2019-05-15T09:59:56.729Z,163
2019-05-15T10:01:08.923Z,168
2019-05-15T10:02:21.121Z,168
2019-05-15T10:03:33.318Z,168
2019-05-15T10:04:45.513Z,168
2019-05-15T10:05:57.712Z,168
2019-05-15T10:07:09.911Z,168
2019-05-15T10:08:22.116Z,168
2019-05-15T10:09:34.312Z,168
2019-05-15T10:10:46.521Z,168
2019-05-15T10:11:58.757Z,168
2019-05-15T10:13:10.917Z,168
2019-05-15T10:14:23.119Z,168
2019-05-15T10:15:35.304Z,168
2019-05-15T10:16:47.507Z,168
2019-05-15T10:17:59.701Z,168
2019-05-15T10:19:11.089Z,168
2019-05-15T10:20:24.105Z,168
2019-05-15T10:21:36.338Z,168
2019-05-15T10:22:48.503Z,174
2019-05-15T10:24:00.069Z,174
2019-05-15T10:25:12.899Z,174
2019-05-15T10:26:25.103Z,174
2019-05-15T10:27:37.310Z,174
2019-05-15T10:28:49.050Z,174
2019-05-15T10:30:01.068Z,174
2019-05-15T10:31:13.890Z,174
2019-05-15T10:32:26.152Z,174
2019-05-15T10:33:38.312Z,180
2019-05-15T10:34:50.492Z,180
2019-05-15T10:36:02.069Z,174
2019-05-15T10:37:14.889Z,180
2019-05-15T10:38:27.088Z,180
2019-05-15T10:39:39.031Z,180
2019-05-15T10:40:51.489Z,180
2019-05-15T10:42:03.678Z,174
2019-05-15T10:43:15.878Z,174
2019-05-15T10:44:28.094Z,180
2019-05-15T10:45:40.311Z,185
2019-05-15T10:46:52.483Z,185
2019-05-15T10:48:04.848Z,185
2019-05-15T10:49:16.871Z,185
2019-05-15T10:50:29.125Z,185
2019-05-15T10:51:41.281Z,191
2019-05-15T10:52:53.470Z,191
2019-05-15T10:54:05.691Z,191
2019-05-15T10:55:17.866Z,180
2019-05-15T10:56:30.072Z,180
2019-05-15T10:57:42.266Z,168
2019-05-15T10:58:54.057Z,168
2019-05-15T11:00:06.671Z,174
2019-05-15T11:01:18.866Z,180
2019-05-15T11:02:31.077Z,191
2019-05-15T11:03:43.266Z,191
2019-05-15T11:04:55.489Z,196
2019-05-15T11:06:07.664Z,191
2019-05-15T11:07:19.873Z,196
2019-05-15T11:08:32.073Z,202
2019-05-15T11:09:45.902Z,202
2019-05-15T11:10:56.527Z,196
2019-05-15T11:12:08.652Z,191
2019-05-15T11:13:20.860Z,191
2019-05-15T11:14:33.059Z,191
2019-05-15T11:15:45.247Z,185
2019-05-15T11:16:57.454Z,191
2019-05-15T11:18:09.654Z,191
2019-05-15T11:19:21.876Z,180
2019-05-15T11:20:34.056Z,196
2019-05-15T11:21:46.254Z,202
2019-05-15T11:22:58.444Z,196
2019-05-15T11:24:10.642Z,191
2019-05-15T11:25:22.847Z,180
2019-05-15T11:26:35.100Z,180
2019-05-15T11:27:47.244Z,180
2019-05-15T11:28:59.043Z,185
2019-05-15T11:30:11.654Z,202
2019-05-15T11:31:23.853Z,208
2019-05-15T11:32:36.048Z,202
2019-05-15T11:33:48.242Z,196
2019-05-15T11:35:00.465Z,191
2019-05-15T11:36:12.710Z,202
2019-05-15T11:37:24.083Z,191
2019-05-15T11:38:37.024Z,196
2019-05-15T11:39:49.240Z,202
2019-05-15T11:41:01.045Z,202
2019-05-15T11:42:13.063Z,202
2019-05-15T11:43:25.832Z,196
2019-05-15T11:44:38.041Z,196
2019-05-15T11:45:50.232Z,196
2019-05-15T11:47:02.004Z,196
2019-05-15T11:48:14.630Z,196
2019-05-15T11:49:26.831Z,196
2019-05-15T11:50:39.022Z,196
2019-05-15T11:51:51.214Z,196
2019-05-15T11:53:03.422Z,196
2019-05-15T11:54:15.624Z,196
2019-05-15T11:55:27.816Z,191
2019-05-15T11:56:40.020Z,191
2019-05-15T11:57:52.226Z,191
2019-05-15T11:59:04.420Z,191
2019-05-15T12:00:16.641Z,191
2019-05-15T12:01:28.814Z,191
2019-05-15T12:02:41.020Z,185
2019-05-15T12:03:53.220Z,185
2019-05-15T12:05:05.410Z,185
2019-05-15T12:06:17.610Z,185
2019-05-15T12:07:29.809Z,185
2019-05-15T12:08:42.021Z,191
2019-05-15T12:09:54.253Z,191
2019-05-15T12:11:06.041Z,191
2019-05-15T12:12:18.602Z,191
2019-05-15T12:13:30.851Z,185
2019-05-15T12:14:43.009Z,191
2019-05-15T12:15:55.021Z,185
2019-05-15T12:17:07.408Z,191
2019-05-15T12:18:19.637Z,191
2019-05-15T12:19:31.799Z,191
2019-05-15T12:20:43.999Z,191
2019-05-15T12:21:56.196Z,196
2019-05-15T12:23:08.398Z,196
2019-05-15T12:24:20.598Z,196
2019-05-15T12:25:32.796Z,196
2019-05-15T12:26:44.996Z,196
2019-05-15T12:27:57.199Z,202
2019-05-15T12:29:09.398Z,208
2019-05-15T12:30:21.613Z,202
2019-05-15T12:31:33.793Z,202
2019-05-15T12:32:46.376Z,208
2019-05-15T12:33:58.197Z,208
2019-05-15T12:35:10.379Z,208
2019-05-15T12:36:22.584Z,213
2019-05-15T12:37:34.786Z,213
2019-05-15T12:38:46.987Z,213
2019-05-15T12:39:59.190Z,213
2019-05-15T12:41:11.394Z,213
2019-05-15T12:42:23.580Z,213
2019-05-15T12:43:35.785Z,219
2019-05-15T12:44:48.007Z,219
2019-05-15T12:46:00.186Z,219
2019-05-15T12:47:12.389Z,230
2019-05-15T12:48:24.587Z,219
2019-05-15T12:49:36.794Z,213
2019-05-15T12:50:48.975Z,213
2019-05-15T12:52:01.001Z,219
2019-05-15T13:11:35.008Z,230
2019-05-15T14:01:48.739Z,270
2019-05-15T14:03:00.945Z,275
2019-05-15T14:04:13.166Z,275
2019-05-15T14:05:25.320Z,281
2019-05-15T14:06:37.525Z,275
2019-05-15T14:07:49.719Z,281
2019-05-15T14:09:01.924Z,281
2019-05-15T14:10:14.167Z,286
2019-05-15T14:11:26.312Z,286
2019-05-15T14:12:38.529Z,286
2019-05-15T14:13:50.717Z,286
2019-05-15T14:15:02.921Z,292
2019-05-15T14:16:15.011Z,286
2019-05-15T14:17:27.307Z,298
2019-05-15T14:18:39.509Z,298
2019-05-15T14:19:51.717Z,298
2019-05-15T14:21:03.913Z,292
2019-05-15T14:22:16.110Z,292
2019-05-15T14:23:28.313Z,286
2019-05-15T14:24:40.504Z,286
2019-05-15T14:25:52.709Z,292
2019-05-15T14:27:04.930Z,264
2019-05-15T14:29:29.307Z,230
2019-05-15T14:30:41.506Z,230
2019-05-15T14:31:53.695Z,247
2019-05-15T14:33:05.896Z,241
2019-05-15T14:34:18.091Z,219
2019-05-15T14:35:30.298Z,275
2019-05-15T14:36:42.496Z,180
2019-05-15T14:37:54.693Z,185
2019-05-15T14:39:06.898Z,174
2019-05-15T14:40:19.017Z,180
2019-05-15T14:41:31.029Z,180
2019-05-15T14:42:43.498Z,140
2019-05-15T14:43:55.681Z,129
2019-05-15T14:45:07.890Z,118
2019-05-15T14:46:20.087Z,123
2019-05-15T14:47:32.286Z,106
2019-05-15T14:48:44.489Z,106
2019-05-15T14:49:56.689Z,112
2019-05-15T14:51:08.886Z,106
2019-05-15T14:52:21.088Z,157
2019-05-15T14:53:33.285Z,118
2019-05-15T14:54:45.496Z,112
2019-05-15T14:55:57.676Z,168
2019-05-15T14:57:09.868Z,112
2019-05-15T14:58:22.130Z,123
2019-05-15T14:59:34.277Z,123
2019-05-15T15:00:46.483Z,129
2019-05-15T15:01:58.676Z,123
2019-05-15T15:03:10.874Z,90
2019-05-15T15:04:23.084Z,112
2019-05-15T15:05:35.277Z,118
2019-05-15T15:06:47.481Z,140
2019-05-15T15:07:59.670Z,185
2019-05-15T15:09:11.866Z,140
2019-05-15T15:10:24.065Z,146
2019-05-15T15:11:36.002Z,106
2019-05-15T15:12:48.481Z,151
2019-05-15T15:14:00.667Z,129
2019-05-15T15:15:12.864Z,101
2019-05-15T15:16:25.065Z,123
2019-05-15T15:17:37.264Z,118
2019-05-15T15:18:49.465Z,140
2019-05-15T15:20:01.651Z,118
2019-05-15T15:21:13.855Z,112
2019-05-15T15:22:26.057Z,118
2019-05-15T15:23:38.275Z,101
2019-05-15T15:24:50.454Z,101
2019-05-15T15:26:02.658Z,101
2019-05-15T15:27:14.855Z,90
2019-05-15T15:28:27.057Z,90
2019-05-15T15:29:39.249Z,84
2019-05-15T15:30:51.447Z,84
2019-05-15T15:32:03.006Z,84
2019-05-15T15:33:15.844Z,84
2019-05-15T15:34:28.047Z,78
2019-05-15T15:35:40.245Z,84
2019-05-15T15:36:52.453Z,90
2019-05-15T15:38:04.644Z,78
2019-05-15T15:39:16.842Z,78
2019-05-15T15:40:29.051Z,78
2019-05-15T15:41:41.250Z,78
2019-05-15T15:42:53.433Z,78
2019-05-15T15:44:05.637Z,78
2019-05-15T15:45:17.833Z,78
2019-05-15T15:46:30.060Z,84
2019-05-15T15:47:42.251Z,84
2019-05-15T15:48:54.437Z,78
2019-05-15T15:50:06.643Z,78
2019-05-15T15:51:18.836Z,78
2019-05-15T15:52:31.028Z,73
2019-05-15T15:53:43.237Z,73
2019-05-15T15:54:55.445Z,73
2019-05-15T15:56:07.634Z,73
2019-05-15T15:57:19.838Z,73
2019-05-15T15:58:32.025Z,73
2019-05-15T15:59:44.022Z,73
2019-05-15T16:00:56.423Z,73
2019-05-15T16:02:08.062Z,73
2019-05-15T16:03:20.822Z,73
2019-05-15T16:04:33.023Z,73
2019-05-15T16:05:45.233Z,73
2019-05-15T16:06:57.418Z,73
2019-05-15T16:08:09.643Z,73
2019-05-15T16:10:34.017Z,67
2019-05-15T16:11:46.021Z,67
2019-05-15T16:12:58.424Z,67
2019-05-15T16:14:10.617Z,67
2019-05-15T16:15:22.878Z,67
2019-05-15T16:16:35.024Z,67
2019-05-15T16:17:47.216Z,67
2019-05-15T16:18:59.409Z,67
2019-05-15T16:20:11.605Z,67
2019-05-15T16:21:23.807Z,67
2019-05-15T16:22:35.998Z,67
2019-05-15T16:23:48.204Z,67
2019-05-15T16:25:00.405Z,61
2019-05-15T16:26:12.607Z,67
2019-05-15T16:27:24.803Z,67
2019-05-15T16:28:36.099Z,67
2019-05-15T16:29:49.021Z,67
2019-05-15T16:31:01.395Z,61
2019-05-15T16:32:13.621Z,61
2019-05-15T16:33:25.079Z,61
2019-05-15T16:34:37.999Z,67
2019-05-15T16:35:50.196Z,67
2019-05-15T16:37:02.397Z,67
2019-05-15T16:38:14.588Z,67
2019-05-15T16:39:26.795Z,67
2019-05-15T16:40:38.999Z,67
2019-05-15T16:41:51.203Z,67
2019-05-15T16:43:03.432Z,67
2019-05-15T16:44:15.593Z,67
2019-05-15T16:45:28.163Z,67
2019-05-15T16:46:39.985Z,67
2019-05-15T16:47:52.198Z,61
2019-05-15T16:49:04.393Z,61
2019-05-15T16:50:16.583Z,61
2019-05-15T16:51:29.132Z,61
2019-05-15T16:52:41.002Z,61
2019-05-15T16:53:53.184Z,61
2019-05-15T16:55:05.387Z,61
2019-05-15T16:56:17.058Z,61
2019-05-15T16:57:29.780Z,61
2019-05-15T16:58:41.098Z,61
2019-05-15T16:59:54.180Z,61
2019-05-15T17:01:06.366Z,61
2019-05-15T17:02:18.585Z,61
2019-05-15T17:03:30.007Z,61
2019-05-15T17:04:42.976Z,61
2019-05-15T17:05:55.972Z,61
2019-05-15T17:07:07.379Z,61
2019-05-15T17:08:20.004Z,61
2019-05-15T17:09:31.767Z,61
2019-05-15T17:10:43.965Z,61
2019-05-15T17:11:56.164Z,61
2019-05-15T17:13:08.367Z,56
2019-05-15T17:14:20.574Z,56
2019-05-15T17:15:32.763Z,56
2019-05-15T17:16:44.964Z,56
2019-05-15T17:17:57.169Z,56
2019-05-15T17:19:09.359Z,56
2019-05-15T17:20:21.565Z,56
2019-05-15T17:21:33.758Z,56
2019-05-15T17:22:45.962Z,61
2019-05-15T17:23:58.152Z,61
2019-05-15T17:25:10.351Z,61
2019-05-15T17:26:22.557Z,61
2019-05-15T17:27:34.774Z,61
2019-05-15T17:28:46.947Z,61
2019-05-15T17:29:59.162Z,61
2019-05-15T17:31:11.347Z,78
2019-05-15T17:32:23.558Z,118
2019-05-15T17:33:35.748Z,106
2019-05-15T17:34:47.937Z,61
2019-05-15T17:36:00.147Z,67
2019-05-15T17:37:12.034Z,50
2019-05-15T17:38:24.547Z,50
2019-05-15T17:39:36.744Z,45
2019-05-15T17:40:48.954Z,45
2019-05-15T17:42:01.147Z,39
2019-05-15T17:43:13.347Z,45
2019-05-15T17:44:25.544Z,39
2019-05-15T17:45:37.734Z,39
2019-05-15T17:46:49.939Z,39
2019-05-15T17:48:02.131Z,39
2019-05-15T17:49:14.034Z,39
2019-05-15T17:50:26.534Z,39
2019-05-15T17:51:38.727Z,39
2019-05-15T17:52:50.942Z,39
2019-05-15T17:54:03.127Z,39
2019-05-15T17:55:15.349Z,39
2019-05-15T17:56:27.533Z,39
2019-05-15T17:57:39.721Z,39
2019-05-15T17:58:51.925Z,39
2019-05-15T18:00:04.012Z,33
2019-05-15T18:01:16.323Z,33
2019-05-15T18:02:28.525Z,33
2019-05-15T18:03:40.725Z,33
2019-05-15T18:04:52.916Z,33
2019-05-15T18:06:05.012Z,33
2019-05-15T18:07:17.322Z,28
2019-05-15T18:08:29.513Z,28
2019-05-15T18:09:41.723Z,28
2019-05-15T18:10:53.905Z,28
2019-05-15T18:12:06.114Z,28
2019-05-15T18:13:18.314Z,28